Skip Navigation Links Skip Navigation Links

Current Weather

Mount Airy/Surry County, Mount Airy, N.C.

For information only: do not use for flight planning or navigation.
Latest weather
Observation time Thursday, December 13, 2018 1:20 PM EST
Local time Thursday, December 13, 2018 1:47 PM EST
Flight conditions Visual Meteorological Conditions
Winds
Wind speed calm
Visibility 10 mi.
Sky condition
Ceiling unlimited
Sky clear
Temperature 45°F
Dewpoint 28°F
Altimeter 30.27 in.Hg
Derived measurements
Relative humidity 52%
Wind chill 45°F
Density altitude -33 ft.
Remarks
Fully automated report.
Automated weather observing station with precipitation discriminator.
METAR KMWK 131820Z AUTO 00000KT 10SM CLR 07/M02 A3027 RMK AO2 T00701021

Settings

Location code

InnerDrive.Weather 4.0.6770.0 Release CLR 4.0.30319.42000
Copyright ©2018 Inner Drive Technology. All rights reserved. Portions Copyright ©1986-2018 David Braverman.

Find weather

Site navigation


Skip Navigation Links

Place info

Page info

PayPal - The safer, easier way to pay online!

Return home.

Copyright ©2018 Inner Drive Technology. Purveyors of fine, hand-crafted computer software. Page printed 2018-12-13T18:47:04 UTC.